createdAt,value
2018-06-01T00:01:26.744Z,53.20
2018-06-01T00:03:54.227Z,52.10
2018-06-01T00:06:21.732Z,51.30
2018-06-01T00:08:49.281Z,51.40
2018-06-01T00:11:17.160Z,52.20
2018-06-01T00:13:44.713Z,52.40
2018-06-01T00:16:13.028Z,51.90
2018-06-01T00:18:40.593Z,51.90
2018-06-01T00:21:08.048Z,51.20
2018-06-01T00:23:35.562Z,51.80
2018-06-01T00:26:03.779Z,53.40
2018-06-01T00:28:31.287Z,53.40
2018-06-01T00:30:59.303Z,53.30
2018-06-01T00:33:26.874Z,52.20
2018-06-01T00:35:54.582Z,52.60
2018-06-01T00:38:22.061Z,52.40
2018-06-01T00:40:49.599Z,51.50
2018-06-01T00:43:17.168Z,50.90
2018-06-01T00:45:45.459Z,50.40
2018-06-01T00:48:13.738Z,50.40
2018-06-01T00:50:42.053Z,50.90
2018-06-01T00:53:09.618Z,50.90
2018-06-01T00:55:37.155Z,51.40
2018-06-01T00:58:04.715Z,52.30
2018-06-01T01:00:32.284Z,53.80
2018-06-01T01:02:59.843Z,54.00
2018-06-01T01:05:27.328Z,53.00
2018-06-01T01:07:54.805Z,51.90
2018-06-01T01:10:22.328Z,53.50
2018-06-01T01:12:49.905Z,53.80
2018-06-01T01:15:17.432Z,52.40
2018-06-01T01:17:44.922Z,52.00
2018-06-01T01:20:12.499Z,51.00
2018-06-01T01:22:39.980Z,52.00
2018-06-01T01:25:08.216Z,51.20
2018-06-01T01:27:35.720Z,51.10
2018-06-01T01:30:03.273Z,50.90
2018-06-01T01:32:30.784Z,50.60
2018-06-01T01:34:58.270Z,50.30
2018-06-01T01:37:34.631Z,50.60
2018-06-01T01:40:02.097Z,50.70
2018-06-01T01:42:29.551Z,50.80
2018-06-01T01:44:57.115Z,51.40
2018-06-01T01:47:24.568Z,51.50
2018-06-01T01:50:00.797Z,51.00
2018-06-01T01:52:28.265Z,50.50
2018-06-01T01:54:55.752Z,50.20
2018-06-01T01:57:23.201Z,50.30
2018-06-01T01:59:50.660Z,50.20
2018-06-01T02:02:24.544Z,50.10
2018-06-01T02:04:52.024Z,50.10
2018-06-01T02:07:19.652Z,50.00
2018-06-01T02:09:47.124Z,51.80
2018-06-01T02:12:14.607Z,53.70
2018-06-01T02:14:42.836Z,52.00
2018-06-01T02:17:10.305Z,52.00
2018-06-01T02:19:37.795Z,51.30
2018-06-01T02:22:05.252Z,51.40
2018-06-01T02:24:32.721Z,51.10
2018-06-01T02:27:00.188Z,51.00
2018-06-01T02:29:27.649Z,50.90
2018-06-01T02:31:55.876Z,51.60
2018-06-01T02:34:23.360Z,51.50
2018-06-01T02:36:52.332Z,51.60
2018-06-01T02:39:19.817Z,51.60
2018-06-01T02:41:48.064Z,53.90
2018-06-01T02:44:15.645Z,53.80
2018-06-01T02:46:43.104Z,52.50
2018-06-01T02:49:10.567Z,52.00
2018-06-01T02:51:38.032Z,53.00
2018-06-01T02:54:05.505Z,54.00
2018-06-01T02:56:32.948Z,53.00
2018-06-01T02:59:00.413Z,53.20
2018-06-01T03:01:27.871Z,53.90
2018-06-01T03:03:55.367Z,54.20
2018-06-01T03:06:22.830Z,53.00
2018-06-01T03:08:50.305Z,52.10
2018-06-01T03:11:18.056Z,53.20
2018-06-01T03:13:45.525Z,53.30
2018-06-01T03:16:13.000Z,54.60
2018-06-01T03:18:40.460Z,55.70
2018-06-01T03:21:07.912Z,54.90
2018-06-01T03:23:35.376Z,53.70
2018-06-01T03:26:03.607Z,54.30
2018-06-01T03:28:31.099Z,54.30
2018-06-01T03:30:58.565Z,53.50
2018-06-01T03:33:27.544Z,53.50
2018-06-01T03:35:55.016Z,53.50
2018-06-01T03:38:22.484Z,52.90
2018-06-01T03:40:50.728Z,53.50
2018-06-01T03:43:18.202Z,53.40
2018-06-01T03:45:45.669Z,53.90
2018-06-01T03:48:13.128Z,53.70
2018-06-01T03:50:40.593Z,53.00
2018-06-01T03:53:08.829Z,52.10
2018-06-01T03:55:36.316Z,52.10
2018-06-01T03:58:03.775Z,52.00
2018-06-01T04:00:31.254Z,52.90
2018-06-01T04:02:59.491Z,52.20
2018-06-01T04:05:26.937Z,52.10
2018-06-01T04:07:54.400Z,51.90
2018-06-01T04:10:21.877Z,51.60
2018-06-01T04:12:51.048Z,53.40
2018-06-01T04:15:18.526Z,53.40
2018-06-01T04:17:45.980Z,52.60
2018-06-01T04:20:13.465Z,52.00
2018-06-01T04:22:41.685Z,51.80
2018-06-01T04:25:09.156Z,51.80
2018-06-01T04:27:36.628Z,51.60
2018-06-01T04:30:04.077Z,51.50
2018-06-01T04:32:31.527Z,51.40
2018-06-01T04:34:59.012Z,51.10
2018-06-01T04:37:26.468Z,51.20
2018-06-01T04:39:53.931Z,51.30
2018-06-01T04:42:22.163Z,51.80
2018-06-01T04:44:49.637Z,51.80
2018-06-01T04:47:17.096Z,51.70
2018-06-01T04:49:44.572Z,51.60
2018-06-01T04:52:12.031Z,51.70
2018-06-01T04:54:39.495Z,52.00
2018-06-01T04:57:08.465Z,51.90
2018-06-01T04:59:35.945Z,51.80
2018-06-01T05:02:03.401Z,52.10
2018-06-01T05:04:30.868Z,52.00
2018-06-01T05:06:58.328Z,52.10
2018-06-01T05:09:26.557Z,52.50
2018-06-01T05:11:54.044Z,52.00
2018-06-01T05:14:21.506Z,52.10
2018-06-01T05:16:48.968Z,52.30
2018-06-01T05:19:16.433Z,52.20
2018-06-01T05:21:43.896Z,52.30
2018-06-01T05:24:12.132Z,52.30
2018-06-01T05:26:39.608Z,52.30
2018-06-01T05:29:07.064Z,52.40
2018-06-01T05:31:34.523Z,52.50
2018-06-01T05:34:01.985Z,52.60
2018-06-01T05:36:29.452Z,52.50
2018-06-01T05:38:56.916Z,52.60
2018-06-01T05:41:25.160Z,52.50
2018-06-01T05:43:52.612Z,52.40
2018-06-01T05:46:20.088Z,52.60
2018-06-01T05:48:47.599Z,52.50
2018-06-01T05:51:15.116Z,52.80
2018-06-01T05:53:43.365Z,52.50
2018-06-01T05:56:10.828Z,52.50
2018-06-01T05:58:38.284Z,52.50
2018-06-01T06:01:05.762Z,52.50
2018-06-01T06:03:33.984Z,52.60
2018-06-01T06:06:01.469Z,52.60
2018-06-01T06:08:28.945Z,52.40
2018-06-01T06:10:56.424Z,52.30
2018-06-01T06:13:23.885Z,52.20
2018-06-01T06:15:51.340Z,52.40
2018-06-01T06:18:18.793Z,52.40
2018-06-01T06:20:46.262Z,52.40
2018-06-01T06:23:14.486Z,53.70
2018-06-01T06:25:41.979Z,53.60
2018-06-01T06:28:09.468Z,53.10
2018-06-01T06:30:37.723Z,52.70
2018-06-01T06:33:05.991Z,53.00
2018-06-01T06:35:33.501Z,53.00
2018-06-01T06:38:00.968Z,52.60
2018-06-01T06:40:28.429Z,52.50
2018-06-01T06:42:55.891Z,52.60
2018-06-01T06:45:23.366Z,52.40
2018-06-01T06:47:50.824Z,52.70
2018-06-01T06:50:18.281Z,52.10
2018-06-01T06:52:45.757Z,52.50
2018-06-01T06:55:13.224Z,52.90
2018-06-01T06:57:41.460Z,54.10
2018-06-01T07:00:09.905Z,54.00
2018-06-01T07:02:37.404Z,54.50
2018-06-01T07:05:04.845Z,54.00
2018-06-01T07:07:32.324Z,53.60
2018-06-01T07:09:59.789Z,53.60
2018-06-01T07:12:27.257Z,53.40
2018-06-01T07:14:54.752Z,53.30
2018-06-01T07:17:22.230Z,52.90
2018-06-01T07:19:49.688Z,53.30
2018-06-01T07:22:17.179Z,53.30
2018-06-01T07:24:44.643Z,52.50
2018-06-01T07:27:12.104Z,51.80
2018-06-01T07:29:40.358Z,51.30
2018-06-01T07:32:07.836Z,51.30
2018-06-01T07:34:36.823Z,50.80
2018-06-01T07:37:04.296Z,50.80
2018-06-01T07:39:31.752Z,51.50
2018-06-01T07:41:59.241Z,50.80
2018-06-01T07:44:26.696Z,50.40
2018-06-01T07:46:54.249Z,51.00
2018-06-01T07:49:21.640Z,50.40
2018-06-01T07:51:49.119Z,50.10
2018-06-01T07:54:16.575Z,50.20
2018-06-01T07:56:44.033Z,50.20
2018-06-01T07:59:11.484Z,50.20
2018-06-01T08:01:38.971Z,50.40
2018-06-01T08:04:07.199Z,49.40
2018-06-01T08:06:34.686Z,49.40
2018-06-01T08:09:02.148Z,49.40
2018-06-01T08:11:29.616Z,49.40
2018-06-01T08:13:57.077Z,48.70
2018-06-01T08:16:24.536Z,49.30
2018-06-01T08:18:51.993Z,49.20
2018-06-01T08:21:19.452Z,48.80
2018-06-01T08:23:46.916Z,48.70
2018-06-01T08:26:14.369Z,48.20
2018-06-01T08:28:42.620Z,48.40
2018-06-01T08:31:10.081Z,48.40
2018-06-01T08:33:37.557Z,47.90
2018-06-01T08:36:05.022Z,48.20
2018-06-01T08:38:32.479Z,47.40
2018-06-01T08:41:00.779Z,47.20
2018-06-01T08:43:28.252Z,47.10
2018-06-01T08:45:55.763Z,46.90
2018-06-01T08:48:23.235Z,46.80
2018-06-01T08:50:50.705Z,46.70
2018-06-01T08:53:18.937Z,46.50
2018-06-01T08:55:46.394Z,46.40
2018-06-01T08:58:13.855Z,46.10
2018-06-01T09:00:41.320Z,46.40
2018-06-01T09:03:09.560Z,45.80
2018-06-01T09:05:37.020Z,45.80
2018-06-01T09:08:04.499Z,45.80
2018-06-01T09:10:31.957Z,45.40
2018-06-01T09:12:59.424Z,45.30
2018-06-01T09:15:26.884Z,45.10
2018-06-01T09:17:55.131Z,44.80
2018-06-01T09:20:22.606Z,44.80
2018-06-01T09:22:50.073Z,44.70
2018-06-01T09:25:17.537Z,44.40
2018-06-01T09:27:45.001Z,44.30
2018-06-01T09:30:12.457Z,44.10
2018-06-01T09:32:39.912Z,44.10
2018-06-01T09:35:07.368Z,44.00
2018-06-01T09:37:34.850Z,43.80
2018-06-01T09:40:03.075Z,43.80
2018-06-01T09:42:30.540Z,43.60
2018-06-01T09:44:58.116Z,43.60
2018-06-01T09:47:25.608Z,43.40
2018-06-01T09:49:53.832Z,42.90
2018-06-01T09:52:21.327Z,42.90
2018-06-01T09:54:48.753Z,42.90
2018-06-01T09:57:17.008Z,42.70
2018-06-01T09:59:45.232Z,42.50
2018-06-01T10:02:13.453Z,42.40
2018-06-01T10:04:40.920Z,42.30
2018-06-01T10:07:09.138Z,42.00
2018-06-01T10:09:36.588Z,41.90
2018-06-01T10:12:04.044Z,42.00
2018-06-01T10:14:31.523Z,41.90
2018-06-01T10:16:59.749Z,41.40
2018-06-01T10:19:27.216Z,41.30
2018-06-01T10:21:54.673Z,41.40
2018-06-01T10:24:22.128Z,41.20
2018-06-01T10:26:49.584Z,41.00
2018-06-01T10:29:17.046Z,40.80
2018-06-01T10:31:44.505Z,40.70
2018-06-01T10:34:11.960Z,40.50
2018-06-01T10:36:39.420Z,40.40
2018-06-01T10:39:06.900Z,40.10
2018-06-01T10:41:34.363Z,39.60
2018-06-01T10:44:02.599Z,39.70
2018-06-01T10:46:34.137Z,39.70
2018-06-01T10:49:01.617Z,39.40
2018-06-01T10:51:29.077Z,39.40
2018-06-01T10:53:56.539Z,39.40
2018-06-01T10:56:23.991Z,39.00
2018-06-01T10:58:52.268Z,39.00
2018-06-01T11:01:19.724Z,38.90
2018-06-01T11:03:47.180Z,38.80
2018-06-01T11:06:14.644Z,38.80
2018-06-01T11:08:42.104Z,38.70
2018-06-01T11:11:09.560Z,38.60
2018-06-01T11:13:37.030Z,38.50
2018-06-01T11:16:04.486Z,38.40
2018-06-01T11:18:31.945Z,38.40
2018-06-01T11:20:59.404Z,38.30
2018-06-01T11:23:26.859Z,38.00
2018-06-01T11:25:54.316Z,38.00
2018-06-01T11:28:21.780Z,38.00
2018-06-01T11:30:49.229Z,38.00
2018-06-01T11:33:16.693Z,37.90
2018-06-01T11:35:44.938Z,37.50
2018-06-01T11:38:12.405Z,37.50
2018-06-01T11:40:39.869Z,37.20
2018-06-01T11:43:07.316Z,37.20
2018-06-01T11:45:34.780Z,37.10
2018-06-01T11:48:02.248Z,36.80
2018-06-01T11:50:30.489Z,36.60
2018-06-01T11:52:57.962Z,36.50
2018-06-01T11:55:25.424Z,36.40
2018-06-01T11:57:52.931Z,36.80
2018-06-01T12:00:21.156Z,38.30
2018-06-01T12:02:48.623Z,38.00
2018-06-01T12:05:16.220Z,38.40
2018-06-01T12:07:44.469Z,39.40
2018-06-01T12:10:11.946Z,39.40
2018-06-01T12:12:39.401Z,39.80
2018-06-01T12:15:07.644Z,40.10
2018-06-01T12:17:35.150Z,40.10
2018-06-01T12:20:02.609Z,40.30
2018-06-01T12:22:30.836Z,40.80
2018-06-01T12:25:00.056Z,40.80
2018-06-01T12:27:28.282Z,40.60
2018-06-01T12:29:55.758Z,40.60
2018-06-01T12:32:24.874Z,41.00
2018-06-01T12:34:52.386Z,41.70
2018-06-01T12:37:20.601Z,41.60
2018-06-01T12:39:48.068Z,41.50
2018-06-01T12:42:15.563Z,42.10
2018-06-01T12:44:43.788Z,41.90
2018-06-01T12:47:11.244Z,41.80
2018-06-01T12:49:38.709Z,41.40
2018-06-01T12:52:06.183Z,42.40
2018-06-01T12:54:33.695Z,42.70
2018-06-01T12:57:01.159Z,42.70
2018-06-01T12:59:28.625Z,42.50
2018-06-01T13:01:56.085Z,42.80
2018-06-01T13:04:23.566Z,42.60
2018-06-01T13:06:51.024Z,42.90
2018-06-01T13:09:18.500Z,43.40
2018-06-01T13:11:45.968Z,43.70
2018-06-01T13:14:14.213Z,43.60
2018-06-01T13:16:41.666Z,43.60
2018-06-01T13:19:09.145Z,43.60
2018-06-01T13:21:36.600Z,44.20
2018-06-01T13:24:04.083Z,45.70
2018-06-01T13:26:32.304Z,49.70
2018-06-01T13:28:59.764Z,49.70
2018-06-01T13:31:27.238Z,51.20
2018-06-01T13:33:54.696Z,52.60
2018-06-01T13:36:22.157Z,52.60
2018-06-01T13:38:51.765Z,49.70
2018-06-01T13:41:19.591Z,49.80
2018-06-01T13:43:47.034Z,50.90
2018-06-01T13:46:14.500Z,52.20
2018-06-01T13:48:41.952Z,53.70
2018-06-01T13:51:09.563Z,52.90
2018-06-01T13:53:39.742Z,54.40
2018-06-01T13:56:07.432Z,54.40
2018-06-01T13:58:34.888Z,52.50
2018-06-01T14:01:02.429Z,53.70
2018-06-01T14:03:30.054Z,52.50
2018-06-01T14:05:59.715Z,54.30
2018-06-01T14:08:28.402Z,54.20
2018-06-01T14:10:59.086Z,53.60
2018-06-01T14:13:26.692Z,52.30
2018-06-01T14:15:54.176Z,51.80
2018-06-01T14:18:22.109Z,51.80
2018-06-01T14:20:51.301Z,50.40
2018-06-01T14:23:19.705Z,50.60
2018-06-01T14:25:47.172Z,50.60
2018-06-01T14:28:14.628Z,50.10
2018-06-01T14:30:42.090Z,51.40
2018-06-01T14:33:09.607Z,53.50
2018-06-01T14:35:37.020Z,51.50
2018-06-01T14:38:05.993Z,51.50
2018-06-01T14:40:33.540Z,51.50
2018-06-01T14:43:01.019Z,51.10
2018-06-01T14:45:31.948Z,51.00
2018-06-01T14:48:01.283Z,50.70
2018-06-01T14:50:29.826Z,50.20
2018-06-01T14:52:57.391Z,50.40
2018-06-01T14:55:24.881Z,51.00
2018-06-01T14:57:53.937Z,50.20
2018-06-01T15:00:21.450Z,50.20
2018-06-01T15:02:48.909Z,49.80
2018-06-01T15:05:16.382Z,49.90
2018-06-01T15:07:43.908Z,49.40
2018-06-01T15:10:13.233Z,49.20
2018-06-01T15:12:41.521Z,50.40
2018-06-01T15:15:09.015Z,50.30
2018-06-01T15:17:36.471Z,50.50
2018-06-01T15:20:05.125Z,50.90
2018-06-01T15:22:32.581Z,51.20
2018-06-01T15:25:00.072Z,51.10
2018-06-01T15:27:27.541Z,50.70
2018-06-01T15:29:55.004Z,51.20
2018-06-01T15:32:27.267Z,51.60
2018-06-01T15:34:54.719Z,51.60
2018-06-01T15:37:22.420Z,51.40
2018-06-01T15:39:50.644Z,51.80
2018-06-01T15:42:18.660Z,51.80
2018-06-01T15:44:47.010Z,52.50
2018-06-01T15:47:14.468Z,53.00
2018-06-01T15:49:41.925Z,52.80
2018-06-01T15:52:09.388Z,52.30
2018-06-01T15:54:37.138Z,52.10
2018-06-01T15:57:05.326Z,52.80
2018-06-01T15:59:32.832Z,52.80
2018-06-01T16:02:01.056Z,53.00
2018-06-01T16:04:28.508Z,52.80
2018-06-01T16:06:56.062Z,53.20
2018-06-01T16:09:23.562Z,53.70
2018-06-01T16:11:51.804Z,53.80
2018-06-01T16:14:19.264Z,53.70
2018-06-01T16:16:46.829Z,53.90
2018-06-01T16:19:14.376Z,54.50
2018-06-01T16:21:41.944Z,54.90
2018-06-01T16:24:09.401Z,55.10
2018-06-01T16:26:36.858Z,55.20
2018-06-01T16:29:04.325Z,55.30
2018-06-01T16:31:31.805Z,54.90
2018-06-01T16:33:59.299Z,54.70
2018-06-01T16:36:26.769Z,55.20
2018-06-01T16:38:54.224Z,55.10
2018-06-01T16:41:21.770Z,55.50
2018-06-01T16:43:49.342Z,55.50
2018-06-01T16:46:16.876Z,55.60
2018-06-01T16:48:45.203Z,56.20
2018-06-01T16:51:12.753Z,56.10
2018-06-01T16:53:40.381Z,56.00
2018-06-01T16:56:11.259Z,56.90
2018-06-01T16:58:39.734Z,56.40
2018-06-01T17:01:07.271Z,56.30
2018-06-01T17:03:34.843Z,56.30
2018-06-01T17:06:02.399Z,57.00
2018-06-01T17:08:29.933Z,56.70
2018-06-01T17:10:57.429Z,57.20
2018-06-01T17:13:24.888Z,56.30
2018-06-01T17:15:52.343Z,55.70
2018-06-01T17:18:19.838Z,54.80
2018-06-01T17:20:47.369Z,54.60
2018-06-01T17:23:14.868Z,54.40
2018-06-01T17:25:43.129Z,54.10
2018-06-01T17:28:10.717Z,54.10
2018-06-01T17:30:38.932Z,55.10
2018-06-01T17:33:06.409Z,54.40
2018-06-01T17:35:33.925Z,53.90
2018-06-01T17:38:01.385Z,53.70
2018-06-01T17:40:28.868Z,53.60
2018-06-01T17:42:56.324Z,53.40
2018-06-01T17:45:23.785Z,53.60
2018-06-01T17:47:52.261Z,53.80
2018-06-01T17:50:19.723Z,53.80
2018-06-01T17:52:47.242Z,53.60
2018-06-01T17:55:15.467Z,53.70
2018-06-01T17:57:42.924Z,53.70
2018-06-01T18:00:10.388Z,54.50
2018-06-01T18:02:37.857Z,54.50
2018-06-01T18:05:05.329Z,55.20
2018-06-01T18:07:32.795Z,56.00
2018-06-01T18:10:01.028Z,56.10
2018-06-01T18:12:28.511Z,56.10
2018-06-01T18:14:56.032Z,56.20
2018-06-01T18:17:23.503Z,55.80
2018-06-01T18:19:50.968Z,55.70
2018-06-01T18:22:18.474Z,56.40
2018-06-01T18:24:45.932Z,56.10
2018-06-01T18:27:14.239Z,56.00
2018-06-01T18:29:41.908Z,56.00
2018-06-01T18:32:09.368Z,55.10
2018-06-01T18:34:36.834Z,54.90
2018-06-01T18:37:04.296Z,55.50
2018-06-01T18:39:31.773Z,55.30
2018-06-01T18:41:59.249Z,56.10
2018-06-01T18:44:26.716Z,55.30
2018-06-01T18:46:54.223Z,56.20
2018-06-01T18:49:21.731Z,57.20
2018-06-01T18:51:49.978Z,57.80
2018-06-01T18:54:17.496Z,57.80
2018-06-01T18:56:44.963Z,58.60
2018-06-01T18:59:12.426Z,57.80
2018-06-01T19:01:39.913Z,58.40
2018-06-01T19:04:07.381Z,58.10
2018-06-01T19:06:36.349Z,58.60
2018-06-01T19:09:03.850Z,58.50
2018-06-01T19:11:31.292Z,59.40
2018-06-01T19:13:58.752Z,59.10
2018-06-01T19:16:26.258Z,59.30
2018-06-01T19:18:53.721Z,58.60
2018-06-01T19:21:21.188Z,59.50
2018-06-01T19:23:48.682Z,59.20
2018-06-01T19:26:16.129Z,58.90
2018-06-01T19:28:43.594Z,59.30
2018-06-01T19:31:12.576Z,59.20
2018-06-01T19:33:40.048Z,59.10
2018-06-01T19:36:07.522Z,60.60
2018-06-01T19:38:37.664Z,59.70
2018-06-01T19:41:05.155Z,59.60
2018-06-01T19:43:32.671Z,58.40
2018-06-01T19:46:00.164Z,57.50
2018-06-01T19:48:27.673Z,57.20
2018-06-01T19:50:55.935Z,57.00
2018-06-01T19:53:23.434Z,57.00
2018-06-01T19:55:50.929Z,56.30
2018-06-01T19:58:18.407Z,57.40
2018-06-01T20:00:45.874Z,57.30
2018-06-01T20:03:14.186Z,56.70
2018-06-01T20:05:41.698Z,56.60
2018-06-01T20:08:09.210Z,56.60
2018-06-01T20:10:36.793Z,57.50
2018-06-01T20:13:04.327Z,57.40
2018-06-01T20:15:32.567Z,57.90
2018-06-01T20:18:00.845Z,58.80
2018-06-01T20:20:29.128Z,58.80
2018-06-01T20:22:57.386Z,59.10
2018-06-01T20:25:25.628Z,59.40
2018-06-01T20:27:53.113Z,59.30
2018-06-01T20:30:20.596Z,60.50
2018-06-01T20:32:48.849Z,60.30
2018-06-01T20:35:16.321Z,60.30
2018-06-01T20:37:44.587Z,59.40
2018-06-01T20:40:12.190Z,59.40
2018-06-01T20:42:39.708Z,60.00
2018-06-01T20:45:07.203Z,59.60
2018-06-01T20:47:35.443Z,61.10
2018-06-01T20:50:02.919Z,61.10
2018-06-01T20:52:31.182Z,61.10
2018-06-01T20:54:59.443Z,61.00
2018-06-01T20:57:26.980Z,60.90
2018-06-01T20:59:55.285Z,62.10
2018-06-01T21:02:22.798Z,62.10
2018-06-01T21:04:50.320Z,61.60
2018-06-01T21:07:18.601Z,61.50
2018-06-01T21:09:46.202Z,61.50
2018-06-01T21:12:14.533Z,62.20
2018-06-01T21:14:42.064Z,62.10
2018-06-01T21:17:09.557Z,62.40
2018-06-01T21:19:37.870Z,61.90
2018-06-01T21:22:05.366Z,61.90
2018-06-01T21:24:32.838Z,62.30
2018-06-01T21:27:01.158Z,63.50
2018-06-01T21:29:28.660Z,63.50
2018-06-01T21:31:56.116Z,63.20
2018-06-01T21:34:23.655Z,63.60
2018-06-01T21:36:51.152Z,64.70
2018-06-01T21:39:19.411Z,64.30
2018-06-01T21:41:47.684Z,63.90
2018-06-01T21:44:15.231Z,64.60
2018-06-01T21:46:42.756Z,64.30
2018-06-01T21:49:10.225Z,63.70
2018-06-01T21:51:37.694Z,64.20
2018-06-01T21:54:05.161Z,64.80
2018-06-01T21:56:32.620Z,64.20
2018-06-01T21:59:00.157Z,65.60
2018-06-01T22:01:27.576Z,65.50
2018-06-01T22:03:55.059Z,65.70
2018-06-01T22:06:22.517Z,65.80
2018-06-01T22:08:49.984Z,65.90
2018-06-01T22:11:17.455Z,66.30
2018-06-01T22:13:44.938Z,66.30
2018-06-01T22:16:12.428Z,66.70
2018-06-01T22:18:39.869Z,66.60
2018-06-01T22:21:07.329Z,66.80
2018-06-01T22:23:34.796Z,66.80
2018-06-01T22:26:03.051Z,67.50
2018-06-01T22:28:31.293Z,67.10
2018-06-01T22:30:58.752Z,68.00
2018-06-01T22:33:26.215Z,67.40
2018-06-01T22:35:53.677Z,67.70
2018-06-01T22:38:21.159Z,67.60
2018-06-01T22:40:48.612Z,67.80
2018-06-01T22:43:16.083Z,67.50
2018-06-01T22:45:44.343Z,67.30
2018-06-01T22:48:11.908Z,67.30
2018-06-01T22:50:39.390Z,67.80
2018-06-01T22:53:06.862Z,67.90
2018-06-01T22:55:34.333Z,67.50
2018-06-01T22:58:01.808Z,67.80
2018-06-01T23:00:33.052Z,68.00
2018-06-01T23:03:00.510Z,68.20
2018-06-01T23:05:27.993Z,68.20
2018-06-01T23:07:55.464Z,67.80
2018-06-01T23:10:22.923Z,67.90
2018-06-01T23:12:50.385Z,67.60
2018-06-01T23:15:17.856Z,67.60
2018-06-01T23:17:46.080Z,68.00
2018-06-01T23:20:14.318Z,68.00
2018-06-01T23:22:42.532Z,67.90
2018-06-01T23:25:10.003Z,67.90
2018-06-01T23:27:37.473Z,68.30
2018-06-01T23:30:04.942Z,68.00
2018-06-01T23:32:32.410Z,68.00
2018-06-01T23:34:59.881Z,68.00
2018-06-01T23:37:28.100Z,67.80
2018-06-01T23:39:55.576Z,67.70
2018-06-01T23:42:23.051Z,68.10
2018-06-01T23:44:50.516Z,67.80
2018-06-01T23:47:17.977Z,68.00
2018-06-01T23:49:45.457Z,68.30
2018-06-01T23:52:13.677Z,68.70
2018-06-01T23:54:41.140Z,68.60
2018-06-01T23:57:08.660Z,68.40
2018-06-01T23:59:36.126Z,67.80
